Etusivu
METAR-TAF:

METAR-TAF

Lentoasemat :

Killeen, Texas, Yhdysvallat

Leveyspiiri: 31-05N, Pituuspiiri: 097-41W, korkeus merenpinnasta: 258 m

Tämänhetkinen sää

Tämä raportti tehtiin 10 minuuttia sitten, kello 07.56 UTC
Tuuli 16 kn etelästä/kaakosta
Lämpötila 24°C
Kosteus 89%
Ilmanpaine 1009 hPa
Näkyvyys: 16.1 km
Hajonneita pilviä 1400 ft:n korkeudessa
Pilvistä 2100 ft:n korkeudessa

METAR: KILE 210756Z AUTO 16016KT 10SM BKN014 OVC021 24/22 A2979 RMK AO2 SLP075 T02440222

Aika: 03:06 (08:06 UTC)


TAF: puuttuu

Säähavainnot ja -ennusteet yli 4000 lentoasemalta (METAR- ja TAF-raportit).

Käytössä olevat sääasemat on merkitty karttaan keltaisilla ja punaisilla pisteillä.

Aseta hiiri pisteen päälle nähdäksesi sääaseman nimen.

Klikkaa sitten nähdäksesi säähavainnot ja -ennusteet.

Kartan vaihtaminen: klikkaa mustalla rastilla varustettuja vihreitä pisteitä, niin voit zoomata sisään; viivalla varustettua vihreää pistettä, niin voit zoomata ulos tai vihreitä nuolia, niin pääset viereisille kartoille.


METAR-TAF: